Time;durP1;ratioP1;P1;durP2;ratioP2;P2;SDS_P1;SDS_P2;PMS_P1;PMS_P2;Temp;Humidity;BMP_temperature;BMP_pressure;BME280_temperature;BME280_humidity;BME280_pressure;Samples;Min_cycle;Max_cycle;Signal;HPM_P1;HPM_P2
2022/07/13 00:02:22;;;;;;;11.77;11.07;;;21.60;99.90;;;;;;5098114;28;20469;-67
2022/07/13 00:04:51;;;;;;;10.90;10.30;;;21.50;99.90;;;;;;5094741;28;20462;-67
2022/07/13 00:07:19;;;;;;;13.90;11.03;;;21.40;99.90;;;;;;5092902;28;20460;-68
2022/07/13 00:09:46;;;;;;;12.10;11.10;;;21.40;99.90;;;;;;5099215;28;20945;-67
2022/07/13 00:12:13;;;;;;;11.63;10.60;;;21.20;99.90;;;;;;5098499;28;20507;-68
2022/07/13 00:14:42;;;;;;;17.80;10.70;;;21.20;99.90;;;;;;5097620;28;20461;-67
2022/07/13 00:17:09;;;;;;;12.33;10.70;;;21.30;99.90;;;;;;5101366;28;20489;-68
2022/07/13 00:19:37;;;;;;;12.13;11.43;;;21.40;99.90;;;;;;5096835;28;20583;-67
2022/07/13 00:22:05;;;;;;;12.20;11.20;;;21.40;99.90;;;;;;5094962;28;20469;-68
2022/07/13 00:24:32;;;;;;;14.40;13.40;;;21.40;99.90;;;;;;5090743;28;20457;-67
2022/07/13 00:27:00;;;;;;;21.20;19.60;;;21.30;99.90;;;;;;5095519;28;20513;-66
2022/07/13 00:29:28;;;;;;;23.23;21.10;;;21.00;99.90;;;;;;5096409;28;20818;-67
2022/07/13 00:31:55;;;;;;;26.23;23.97;;;20.70;99.90;;;;;;5099920;28;20489;-66
2022/07/13 00:34:22;;;;;;;28.00;25.77;;;20.50;99.90;;;;;;5095910;28;20524;-67
2022/07/13 00:36:50;;;;;;;27.43;24.23;;;20.20;99.90;;;;;;5097090;27;20460;-65
2022/07/13 00:39:18;;;;;;;26.90;23.57;;;20.10;99.90;;;;;;5097338;28;20450;-67
2022/07/13 00:41:45;;;;;;;29.20;24.80;;;20.10;99.90;;;;;;5099825;28;20476;-66
2022/07/13 00:44:13;;;;;;;29.53;23.40;;;20.00;99.90;;;;;;5092495;28;20465;-67
2022/07/13 00:46:42;;;;;;;26.03;23.53;;;19.90;99.90;;;;;;5103166;28;20460;-67
2022/07/13 00:49:11;;;;;;;28.20;25.20;;;19.90;99.90;;;;;;5093801;28;20454;-66
2022/07/13 00:51:39;;;;;;;41.10;24.30;;;19.90;99.90;;;;;;5090159;28;20469;-66
2022/07/13 00:54:08;;;;;;;40.03;26.40;;;19.90;99.90;;;;;;5094171;28;20503;-66
2022/07/13 00:56:37;;;;;;;50.73;25.00;;;19.90;99.90;;;;;;5097252;28;20472;-68
2022/07/13 00:59:06;;;;;;;42.87;24.80;;;19.80;99.90;;;;;;5096229;28;20488;-67
2022/07/13 01:01:33;;;;;;;31.00;23.60;;;19.70;99.90;;;;;;5098463;28;20477;-67
2022/07/13 01:04:00;;;;;;;29.20;22.37;;;19.60;99.90;;;;;;5094771;28;20513;-66
2022/07/13 01:06:28;;;;;;;24.23;21.20;;;19.60;99.90;;;;;;5093951;28;20460;-66
2022/07/13 01:08:57;;;;;;;31.43;21.10;;;19.60;99.90;;;;;;5096413;28;20457;-65
2022/07/13 01:11:23;;;;;;;31.37;21.10;;;19.60;99.90;;;;;;5087868;28;20486;-66
2022/07/13 01:13:52;;;;;;;27.40;18.87;;;19.60;99.90;;;;;;5095266;28;20491;-66
2022/07/13 01:16:19;;;;;;;22.90;18.10;;;19.60;99.90;;;;;;5101177;28;20457;-67
2022/07/13 01:18:46;;;;;;;19.57;18.07;;;19.50;99.90;;;;;;5092670;28;20808;-67
2022/07/13 01:21:14;;;;;;;19.10;17.27;;;19.50;99.90;;;;;;5090757;28;20458;-66
2022/07/13 01:23:43;;;;;;;22.60;16.50;;;19.40;99.90;;;;;;5097671;28;20457;-66
2022/07/13 01:26:12;;;;;;;18.13;16.73;;;19.50;99.90;;;;;;5094321;28;20821;-67
2022/07/13 01:28:39;;;;;;;17.40;16.20;;;19.60;99.90;;;;;;5094060;28;21604;-67
2022/07/13 01:31:05;;;;;;;18.20;16.23;;;19.70;99.90;;;;;;5091889;28;20476;-67
2022/07/13 01:33:33;;;;;;;16.57;15.33;;;19.80;99.90;;;;;;5097986;28;20500;-67
2022/07/13 01:36:00;;;;;;;16.73;15.40;;;19.90;99.90;;;;;;5094029;28;20461;-67
2022/07/13 01:38:28;;;;;;;17.37;15.57;;;20.00;99.90;;;;;;5088315;28;20666;-67
2022/07/13 01:40:57;;;;;;;16.90;15.63;;;20.00;99.90;;;;;;5101225;28;20468;-68
2022/07/13 01:43:29;;;;;;;16.03;14.83;;;20.10;99.90;;;;;;5095323;28;20462;-67
2022/07/13 01:45:55;;;;;;;15.37;14.27;;;20.30;99.90;;;;;;5090256;28;20466;-67
2022/07/13 01:48:23;;;;;;;16.37;14.57;;;20.40;99.90;;;;;;5094699;28;20480;-67
2022/07/13 01:50:50;;;;;;;17.00;15.80;;;20.40;99.90;;;;;;5099971;28;20470;-68
2022/07/13 01:53:17;;;;;;;15.93;14.70;;;20.40;99.90;;;;;;5093854;28;20481;-67
2022/07/13 01:55:44;;;;;;;14.20;13.40;;;20.50;99.90;;;;;;5103870;28;20466;-67
2022/07/13 01:58:12;;;;;;;13.67;12.77;;;20.50;99.90;;;;;;5096277;28;20458;-67
2022/07/13 02:00:41;;;;;;;13.03;12.13;;;20.50;99.90;;;;;;5100226;28;20805;-67
2022/07/13 02:03:08;;;;;;;13.27;12.30;;;20.50;99.90;;;;;;5091254;28;20461;-68
2022/07/13 02:05:35;;;;;;;13.57;12.57;;;20.50;99.90;;;;;;5093563;28;20462;-67
2022/07/13 02:08:02;;;;;;;15.83;12.40;;;20.50;99.90;;;;;;5096377;28;20465;-67
2022/07/13 02:10:35;;;;;;;13.43;12.43;;;20.50;99.90;;;;;;5087481;28;20473;-68
2022/07/13 02:13:03;;;;;;;14.80;13.70;;;20.50;99.90;;;;;;5087947;28;20498;-67
2022/07/13 02:15:31;;;;;;;15.13;14.03;;;20.60;99.90;;;;;;5101101;28;20466;-67
2022/07/13 02:17:58;;;;;;;14.53;13.70;;;20.70;99.90;;;;;;5095626;28;20461;-67
2022/07/13 02:20:25;;;;;;;15.10;13.60;;;20.80;99.90;;;;;;5093315;28;20454;-67
2022/07/13 02:22:53;;;;;;;14.80;13.80;;;20.90;99.90;;;;;;5098258;28;21030;-68
2022/07/13 02:25:20;;;;;;;14.33;13.50;;;20.90;99.90;;;;;;5094450;28;20465;-67
2022/07/13 02:27:47;;;;;;;14.93;14.03;;;21.00;99.90;;;;;;5096501;28;20476;-68
2022/07/13 02:30:15;;;;;;;15.13;14.20;;;21.00;99.90;;;;;;5089335;28;20488;-67
2022/07/13 02:32:46;;;;;;;15.47;14.37;;;21.10;99.90;;;;;;5093745;28;20481;-67
2022/07/13 02:35:14;;;;;;;15.50;14.30;;;21.10;99.90;;;;;;5093137;28;20470;-68
2022/07/13 02:37:41;;;;;;;15.53;14.30;;;21.10;99.90;;;;;;5092561;28;20466;-67
2022/07/13 02:40:12;;;;;;;15.37;14.27;;;21.20;99.90;;;;;;5093919;28;20462;-67
2022/07/13 02:42:38;;;;;;;15.60;14.17;;;21.20;99.90;;;;;;5088047;28;20481;-66
2022/07/13 02:45:06;;;;;;;15.57;14.20;;;21.20;99.90;;;;;;5093112;28;20467;-67
2022/07/13 02:47:34;;;;;;;26.57;14.70;;;21.40;99.90;;;;;;5097391;28;20465;-67
2022/07/13 02:50:02;;;;;;;15.87;14.43;;;21.40;99.90;;;;;;5098475;28;20461;-68
2022/07/13 02:52:29;;;;;;;16.10;14.60;;;21.40;99.90;;;;;;5094464;28;20458;-67
2022/07/13 02:54:58;;;;;;;16.63;14.90;;;21.40;99.90;;;;;;5092360;28;20481;-67
2022/07/13 02:57:26;;;;;;;15.13;14.13;;;21.40;99.90;;;;;;5094337;28;20515;-67
2022/07/13 02:59:53;;;;;;;16.20;14.20;;;21.40;99.90;;;;;;5087943;28;20957;-67
2022/07/13 03:02:20;;;;;;;15.90;14.50;;;21.40;99.90;;;;;;5090744;28;20968;-66
2022/07/13 03:04:47;;;;;;;15.07;14.00;;;21.40;99.90;;;;;;5092503;28;20891;-66
2022/07/13 03:07:16;;;;;;;15.73;14.57;;;21.40;99.90;;;;;;5096406;28;20752;-68
2022/07/13 03:09:43;;;;;;;18.63;14.60;;;21.40;99.90;;;;;;5087223;28;20461;-67
2022/07/13 03:12:11;;;;;;;14.63;13.73;;;21.40;99.90;;;;;;5097072;28;20466;-67
2022/07/13 03:14:38;;;;;;;15.33;14.20;;;21.40;99.90;;;;;;5095843;28;20488;-68
2022/07/13 03:17:05;;;;;;;17.57;14.20;;;21.30;99.90;;;;;;5095571;28;20506;-67
2022/07/13 03:19:31;;;;;;;14.40;13.20;;;21.20;99.90;;;;;;5097826;28;20973;-66
2022/07/13 03:21:59;;;;;;;15.20;14.00;;;21.10;99.90;;;;;;5093012;28;21290;-66
2022/07/13 03:24:30;;;;;;;14.87;13.70;;;21.10;99.90;;;;;;5092216;28;20473;-67
2022/07/13 03:26:57;;;;;;;14.50;13.50;;;21.10;99.90;;;;;;5094616;28;20992;-67
2022/07/13 03:29:25;;;;;;;17.07;13.63;;;21.10;99.90;;;;;;5094396;28;20944;-66
2022/07/13 03:31:51;;;;;;;15.17;13.97;;;21.10;99.90;;;;;;5090304;28;20472;-67
2022/07/13 03:34:20;;;;;;;14.77;13.47;;;21.10;99.90;;;;;;5091388;28;21019;-66
2022/07/13 03:36:46;;;;;;;15.20;13.57;;;21.00;99.90;;;;;;5098661;28;20465;-67
2022/07/13 03:39:13;;;;;;;15.33;14.00;;;21.00;99.90;;;;;;5090324;28;20470;-67
2022/07/13 03:41:42;;;;;;;14.60;13.70;;;21.10;99.90;;;;;;5096478;28;20537;-68
2022/07/13 03:44:09;;;;;;;15.87;14.50;;;21.20;99.90;;;;;;5094108;28;20458;-67
2022/07/13 03:46:36;;;;;;;15.80;14.60;;;21.20;99.90;;;;;;5098316;28;20465;-67
2022/07/13 03:49:03;;;;;;;16.70;14.40;;;21.30;99.90;;;;;;5094008;28;20457;-67
2022/07/13 03:51:30;;;;;;;16.50;14.97;;;21.30;99.90;;;;;;5099996;28;20458;-66
2022/07/13 03:53:57;;;;;;;16.17;14.60;;;21.30;99.90;;;;;;5098908;28;20486;-68
2022/07/13 03:56:24;;;;;;;15.13;14.20;;;21.40;99.90;;;;;;5100322;28;20462;-68
2022/07/13 03:58:52;;;;;;;15.90;14.57;;;21.40;99.90;;;;;;5095580;28;20465;-67
2022/07/13 04:01:20;;;;;;;20.10;14.57;;;21.40;99.90;;;;;;5090912;28;20747;-67
2022/07/13 04:03:47;;;;;;;15.80;14.60;;;21.40;99.90;;;;;;5068051;28;21710;-68
2022/07/13 04:06:14;;;;;;;15.00;14.10;;;21.50;99.90;;;;;;5071696;28;20466;-67
2022/07/13 04:08:41;;;;;;;14.97;13.97;;;21.50;99.90;;;;;;5070718;28;20994;-67
2022/07/13 04:11:08;;;;;;;15.10;14.00;;;21.40;99.90;;;;;;5070741;28;21565;-67
2022/07/13 04:13:35;;;;;;;15.63;14.30;;;21.40;99.90;;;;;;5070964;28;20456;-68
2022/07/13 04:16:04;;;;;;;17.67;13.97;;;21.40;99.90;;;;;;5070150;28;20964;-67
2022/07/13 04:18:32;;;;;;;15.10;14.00;;;21.40;99.90;;;;;;5068745;28;21046;-67
2022/07/13 04:20:59;;;;;;;15.43;14.43;;;21.30;99.90;;;;;;5071211;28;20562;-67
2022/07/13 04:23:26;;;;;;;16.07;14.57;;;21.30;99.90;;;;;;5070441;28;21033;-66
2022/07/13 04:25:54;;;;;;;14.90;13.73;;;21.40;99.90;;;;;;5070853;28;20441;-67
2022/07/13 04:28:22;;;;;;;15.23;14.17;;;21.40;99.90;;;;;;5069061;28;20457;-66
2022/07/13 04:30:48;;;;;;;16.53;15.43;;;21.40;99.90;;;;;;5069514;28;20465;-66
2022/07/13 04:33:17;;;;;;;17.03;15.90;;;21.40;99.90;;;;;;5069689;27;20858;-67
2022/07/13 04:35:44;;;;;;;16.77;15.67;;;21.30;99.90;;;;;;5070654;28;20687;-66
2022/07/13 04:38:11;;;;;;;16.07;15.23;;;21.20;99.90;;;;;;5067860;28;20986;-67
2022/07/13 04:40:38;;;;;;;16.27;15.07;;;21.10;99.90;;;;;;5069090;28;20476;-67
2022/07/13 04:43:05;;;;;;;16.00;14.40;;;20.90;99.90;;;;;;5068894;28;21025;-68
2022/07/13 04:45:32;;;;;;;15.20;13.97;;;20.90;99.90;;;;;;5068255;28;20469;-67
2022/07/13 04:47:59;;;;;;;14.93;13.83;;;20.90;99.90;;;;;;5068439;28;20466;-68
2022/07/13 04:50:27;;;;;;;17.83;14.60;;;21.00;99.90;;;;;;5069564;28;20462;-67
2022/07/13 04:52:54;;;;;;;17.80;13.90;;;21.10;99.90;;;;;;5070971;28;20481;-68
2022/07/13 04:55:21;;;;;;;18.47;13.93;;;21.20;99.90;;;;;;5078327;28;20497;-68
2022/07/13 04:57:48;;;;;;;15.80;14.63;;;21.20;99.90;;;;;;5067650;28;20449;-68
2022/07/13 05:00:16;;;;;;;16.07;14.60;;;21.40;99.90;;;;;;5067412;28;20454;-67
2022/07/13 05:02:43;;;;;;;16.87;15.43;;;21.50;99.90;;;;;;5069421;28;20454;-67
2022/07/13 05:05:10;;;;;;;16.40;14.97;;;21.80;99.90;;;;;;5067850;28;20461;-67
2022/07/13 05:07:39;;;;;;;16.00;15.03;;;21.90;99.90;;;;;;5068871;28;20488;-67
2022/07/13 05:10:07;;;;;;;16.27;15.20;;;22.00;99.90;;;;;;5068450;28;20446;-66
2022/07/13 05:12:39;;;;;;;15.90;14.83;;;22.10;99.90;;;;;;5067911;28;20524;-65
2022/07/13 05:15:07;;;;;;;16.77;15.63;;;22.10;99.90;;;;;;5068145;28;20639;-67
2022/07/13 05:17:34;;;;;;;17.10;15.50;;;22.20;99.90;;;;;;5067848;28;20466;-66
2022/07/13 05:20:00;;;;;;;16.80;15.80;;;22.30;99.90;;;;;;5068686;28;20528;-67
2022/07/13 05:22:27;;;;;;;17.73;15.93;;;22.40;99.90;;;;;;5069699;28;20489;-67
2022/07/13 05:24:56;;;;;;;16.60;15.60;;;22.50;99.90;;;;;;5068763;28;20486;-67
2022/07/13 05:27:23;;;;;;;17.03;16.03;;;22.70;99.90;;;;;;5069754;28;20489;-67
2022/07/13 05:29:51;;;;;;;16.33;15.33;;;22.80;99.90;;;;;;5069288;28;20952;-66
2022/07/13 05:32:18;;;;;;;16.30;15.27;;;22.80;99.90;;;;;;5068831;28;20849;-65
2022/07/13 05:34:45;;;;;;;16.53;15.50;;;23.00;99.90;;;;;;5069700;28;20591;-67
2022/07/13 05:37:12;;;;;;;17.40;16.30;;;23.20;99.90;;;;;;5067969;28;20454;-67
2022/07/13 05:39:42;;;;;;;16.67;15.53;;;23.40;99.90;;;;;;5067596;28;20469;-68
2022/07/13 05:42:10;;;;;;;17.13;16.10;;;23.50;99.90;;;;;;5081854;28;20461;-66
2022/07/13 05:44:37;;;;;;;17.33;15.90;;;23.60;99.90;;;;;;5090640;28;20450;-66
2022/07/13 05:47:04;;;;;;;16.97;15.87;;;23.70;99.90;;;;;;5093083;28;20475;-66
2022/07/13 05:49:31;;;;;;;16.77;15.60;;;23.80;99.90;;;;;;5072880;28;20747;-67
2022/07/13 05:51:58;;;;;;;16.67;15.60;;;23.90;99.90;;;;;;5066794;28;20605;-67
2022/07/13 05:54:25;;;;;;;17.33;16.27;;;24.10;99.90;;;;;;5067597;28;20512;-67
2022/07/13 05:56:52;;;;;;;17.23;16.23;;;24.50;99.90;;;;;;5067894;28;20559;-67
2022/07/13 05:59:21;;;;;;;22.33;16.90;;;24.60;99.90;;;;;;5067260;28;20965;-67
2022/07/13 06:01:48;;;;;;;18.20;16.73;;;24.80;99.90;;;;;;5075414;28;20975;-67
2022/07/13 06:04:16;;;;;;;17.27;16.10;;;24.90;99.90;;;;;;5090292;28;20501;-68
2022/07/13 06:06:43;;;;;;;17.23;16.13;;;25.10;99.90;;;;;;5096084;28;20461;-67
2022/07/13 06:09:11;;;;;;;16.60;15.70;;;25.20;99.90;;;;;;5093339;28;20456;-67
2022/07/13 06:11:39;;;;;;;18.47;16.70;;;25.20;99.90;;;;;;5079263;28;20481;-68
2022/07/13 06:14:06;;;;;;;17.20;16.30;;;25.30;99.90;;;;;;5067628;28;20559;-68
2022/07/13 06:16:49;;;;;;;17.63;16.50;;;25.40;99.90;;;;;;5072910;28;20469;-67
2022/07/13 06:19:16;;;;;;;16.23;15.40;;;25.30;99.90;;;;;;5092939;28;20465;-68
2022/07/13 06:21:43;;;;;;;17.53;16.43;;;25.30;99.90;;;;;;5084899;28;20468;-69
2022/07/13 06:24:10;;;;;;;17.10;15.77;;;25.40;99.90;;;;;;5096465;28;21005;-67
2022/07/13 06:26:37;;;;;;;18.23;16.40;;;25.50;99.90;;;;;;5089445;28;20509;-68
2022/07/13 06:29:05;;;;;;;17.63;16.37;;;25.50;99.90;;;;;;5064108;28;20465;-67
2022/07/13 06:31:31;;;;;;;17.13;16.10;;;25.80;99.90;;;;;;5065033;28;20539;-69
2022/07/13 06:33:59;;;;;;;17.63;16.20;;;25.90;99.90;;;;;;5065238;28;20521;-67
2022/07/13 06:36:26;;;;;;;16.37;15.10;;;25.90;99.90;;;;;;5064795;28;20493;-67
2022/07/13 06:38:53;;;;;;;17.00;16.10;;;25.80;99.90;;;;;;5064915;28;21107;-67
2022/07/13 06:41:20;;;;;;;17.67;16.43;;;25.80;99.90;;;;;;5065871;28;20462;-67
2022/07/13 06:43:47;;;;;;;16.80;15.90;;;26.00;99.90;;;;;;5063513;28;20477;-67
2022/07/13 06:46:14;;;;;;;17.90;16.67;;;26.30;99.90;;;;;;5065328;28;20461;-68
2022/07/13 06:48:41;;;;;;;17.00;15.53;;;26.40;99.90;;;;;;5065005;28;20473;-69
2022/07/13 06:51:09;;;;;;;17.30;16.13;;;26.60;99.90;;;;;;5064513;28;20468;-67
2022/07/13 06:53:36;;;;;;;17.87;16.50;;;26.70;99.90;;;;;;5064935;28;20803;-68
2022/07/13 06:56:03;;;;;;;17.10;16.20;;;26.70;99.90;;;;;;5065305;28;20585;-67
2022/07/13 06:58:30;;;;;;;17.47;16.47;;;26.60;99.90;;;;;;5066503;28;20976;-66
2022/07/13 07:00:57;;;;;;;17.43;16.40;;;26.80;99.90;;;;;;5066371;28;20473;-67
2022/07/13 07:03:24;;;;;;;17.00;16.10;;;26.70;99.90;;;;;;5066875;28;21084;-69
2022/07/13 07:05:51;;;;;;;17.33;16.30;;;27.00;99.90;;;;;;5066349;28;21500;-68
2022/07/13 07:08:20;;;;;;;17.37;16.47;;;27.10;99.90;;;;;;5065950;28;20975;-67
2022/07/13 07:10:47;;;;;;;17.27;16.20;;;27.20;99.90;;;;;;5066696;28;20530;-66
2022/07/13 07:13:14;;;;;;;17.87;16.57;;;27.30;99.90;;;;;;5071007;28;20817;-66
2022/07/13 07:15:41;;;;;;;17.20;16.10;;;27.30;99.90;;;;;;5068161;28;20741;-67
2022/07/13 07:18:08;;;;;;;16.80;15.90;;;27.30;99.90;;;;;;5069296;28;20457;-66
2022/07/13 07:20:35;;;;;;;17.47;16.57;;;27.50;99.90;;;;;;5082447;28;20500;-66
2022/07/13 07:23:02;;;;;;;17.50;16.70;;;27.60;99.90;;;;;;5094990;28;20466;-67
2022/07/13 07:25:30;;;;;;;17.27;16.30;;;27.80;99.90;;;;;;5095605;28;20460;-66
2022/07/13 07:27:57;;;;;;;16.77;15.97;;;27.50;99.90;;;;;;5081926;28;20485;-67
2022/07/13 07:30:24;;;;;;;19.50;17.90;;;27.00;99.90;;;;;;5070545;28;20470;-67
2022/07/13 07:32:51;;;;;;;20.73;19.27;;;26.90;99.90;;;;;;5078261;28;20473;-67
2022/07/13 07:35:17;;;;;;;22.17;20.67;;;26.10;99.90;;;;;;5092960;28;20485;-66
2022/07/13 07:37:44;;;;;;;19.97;18.90;;;25.40;99.90;;;;;;5097159;28;20494;-66
2022/07/13 07:40:11;;;;;;;16.83;15.83;;;24.90;99.90;;;;;;5094332;28;20479;-66
2022/07/13 07:42:40;;;;;;;16.67;15.77;;;24.70;99.90;;;;;;5084274;28;20458;-67
2022/07/13 07:45:08;;;;;;;17.43;16.23;;;24.70;99.90;;;;;;5078664;28;20585;-67
2022/07/13 07:47:35;;;;;;;25.93;16.30;;;25.00;99.90;;;;;;5098202;28;21040;-66
2022/07/13 07:50:04;;;;;;;16.50;15.70;;;25.30;99.90;;;;;;5099731;28;20468;-67
2022/07/13 07:52:31;;;;;;;18.47;17.07;;;25.70;99.90;;;;;;5080134;28;20591;-68
2022/07/13 07:54:58;;;;;;;17.90;16.70;;;26.10;99.90;;;;;;5069779;28;20485;-68
2022/07/13 07:57:25;;;;;;;17.10;16.20;;;26.40;99.90;;;;;;5068838;28;20932;-67
2022/07/13 07:59:53;;;;;;;17.87;16.90;;;26.80;99.90;;;;;;5070032;28;20480;-66
2022/07/13 08:02:20;;;;;;;17.80;16.50;;;27.20;99.90;;;;;;5069885;28;20454;-68
2022/07/13 08:04:49;;;;;;;17.90;16.70;;;27.40;99.90;;;;;;5070412;28;20507;-68
2022/07/13 08:07:15;;;;;;;17.90;16.70;;;27.90;99.90;;;;;;5067590;28;21060;-67
2022/07/13 08:09:42;;;;;;;17.20;16.30;;;27.90;99.90;;;;;;5069405;28;20474;-69
2022/07/13 08:12:09;;;;;;;17.17;16.17;;;28.00;99.60;;;;;;5068720;28;20493;-67
2022/07/13 08:14:36;;;;;;;17.10;15.77;;;27.80;99.10;;;;;;5069393;28;20450;-67
2022/07/13 08:17:05;;;;;;;17.10;15.97;;;27.60;98.50;;;;;;5069052;28;20457;-67
2022/07/13 08:19:31;;;;;;;16.43;15.43;;;27.60;99.40;;;;;;5069343;28;20569;-67
2022/07/13 08:22:00;;;;;;;17.90;16.20;;;27.60;98.70;;;;;;5068733;28;20465;-67
2022/07/13 08:24:26;;;;;;;17.50;16.50;;;27.90;98.50;;;;;;5069373;27;20480;-67
2022/07/13 08:26:54;;;;;;;18.20;16.87;;;28.30;97.60;;;;;;5067582;28;20474;-69
2022/07/13 08:29:21;;;;;;;16.40;15.60;;;28.50;96.20;;;;;;5067882;28;20469;-66
2022/07/13 08:31:47;;;;;;;17.17;16.37;;;28.50;96.10;;;;;;5069294;28;20811;-68
2022/07/13 08:39:44;;;;;;;36.67;17.37;;;29.50;93.50;;;;;;5076603;28;20465;-66
2022/07/13 08:42:14;;;;;;;17.53;16.63;;;29.90;91.20;;;;;;5076497;28;20893;-66
2022/07/13 08:44:41;;;;;;;18.23;16.90;;;29.90;90.60;;;;;;5076824;28;20460;-67
2022/07/13 08:47:10;;;;;;;17.80;16.80;;;29.70;90.00;;;;;;5076659;28;20458;-67
2022/07/13 08:49:38;;;;;;;17.80;16.80;;;29.70;87.70;;;;;;5075645;28;20452;-68
2022/07/13 08:52:06;;;;;;;18.10;16.83;;;29.70;84.70;;;;;;5075362;28;20453;-69
2022/07/13 08:54:34;;;;;;;18.00;16.80;;;29.60;85.00;;;;;;5075958;28;20441;-68
2022/07/13 08:57:01;;;;;;;17.53;16.50;;;29.70;84.40;;;;;;5075762;28;20511;-67
2022/07/13 09:02:50;;;;;;;18.00;16.47;;;29.70;80.60;;;;;;5076173;28;20425;-68
2022/07/13 09:05:20;;;;;;;17.23;16.13;;;29.80;79.60;;;;;;5076516;28;20454;-68
2022/07/13 09:08:03;;;;;;;16.60;15.67;;;29.60;79.60;;;;;;5076263;28;20581;-67
2022/07/13 09:10:30;;;;;;;18.30;17.17;;;29.50;80.90;;;;;;5075656;28;20450;-70
2022/07/13 09:12:57;;;;;;;19.00;17.37;;;29.70;79.80;;;;;;5076407;28;20624;-68
2022/07/13 09:15:24;;;;;;;18.33;16.90;;;30.10;80.20;;;;;;5075881;28;20482;-68
2022/07/13 09:17:51;;;;;;;18.17;16.97;;;30.10;80.10;;;;;;5075973;28;20979;-69
2022/07/13 09:20:24;;;;;;;18.47;16.77;;;30.10;78.70;;;;;;5075830;28;20831;-68
2022/07/13 09:22:52;;;;;;;17.90;16.43;;;29.80;78.70;;;;;;5075942;28;20476;-67
2022/07/13 09:25:32;;;;;;;17.57;16.30;;;29.70;80.90;;;;;;5075657;28;20925;-68
2022/07/13 09:28:03;;;;;;;19.57;17.80;;;30.00;80.80;;;;;;5075237;28;21010;-68
2022/07/13 09:33:55;;;;;;;17.53;16.60;;;30.80;79.70;;;;;;5068335;28;20517;-68
2022/07/13 09:36:25;;;;;;;18.17;17.17;;;30.80;77.90;;;;;;5068424;28;20490;-69
2022/07/13 09:38:52;;;;;;;17.00;16.07;;;30.80;76.00;;;;;;5068784;28;20577;-66
2022/07/13 09:41:24;;;;;;;17.13;16.27;;;30.50;77.40;;;;;;5068653;28;20468;-69
2022/07/13 09:46:51;;;;;;;17.70;16.67;;;30.30;76.40;;;;;;5067486;28;20503;-67
2022/07/13 09:49:18;;;;;;;17.77;16.67;;;30.20;75.00;;;;;;5067113;28;20462;-67
2022/07/13 09:51:46;;;;;;;17.87;16.30;;;29.80;76.20;;;;;;5067353;28;20556;-68
2022/07/13 09:54:14;;;;;;;17.10;16.27;;;29.90;77.10;;;;;;5066754;28;20458;-67
2022/07/13 09:56:48;;;;;;;16.20;15.40;;;30.00;76.80;;;;;;5067201;28;21174;-68
2022/07/13 09:59:17;;;;;;;17.23;15.90;;;29.90;76.40;;;;;;5067789;28;20469;-69
2022/07/13 10:01:45;;;;;;;17.07;16.10;;;29.90;77.40;;;;;;5067414;28;20476;-68
2022/07/13 10:04:13;;;;;;;17.90;16.10;;;29.90;77.80;;;;;;5067872;28;20472;-68
2022/07/13 10:06:41;;;;;;;16.87;15.97;;;30.30;77.40;;;;;;5066552;28;20449;-68
2022/07/13 10:09:10;;;;;;;17.63;16.50;;;30.50;77.90;;;;;;5067436;28;20450;-67
2022/07/13 10:11:37;;;;;;;17.30;16.00;;;30.90;77.10;;;;;;5066647;28;20457;-68
2022/07/13 10:14:05;;;;;;;17.43;16.10;;;31.20;75.60;;;;;;5067366;28;21250;-69
2022/07/13 10:16:32;;;;;;;18.83;16.93;;;31.30;74.00;;;;;;5067205;28;20890;-69
2022/07/13 10:19:04;;;;;;;17.40;16.50;;;31.30;75.00;;;;;;5066692;28;20461;-67
2022/07/13 10:21:42;;;;;;;17.30;16.30;;;31.60;74.20;;;;;;5066862;28;22401;-69
2022/07/13 10:24:25;;;;;;;18.03;17.03;;;31.30;73.60;;;;;;5067180;28;20461;-68
2022/07/13 10:26:52;;;;;;;18.40;17.20;;;31.60;74.30;;;;;;5068244;27;20989;-69
2022/07/13 10:29:20;;;;;;;18.20;16.90;;;32.20;75.40;;;;;;5066799;28;20834;-70
2022/07/13 10:31:59;;;;;;;18.10;16.70;;;32.60;71.60;;;;;;5067696;28;20460;-69
2022/07/13 10:34:51;;;;;;;17.93;16.33;;;32.50;71.80;;;;;;5067431;28;20464;-69
2022/07/13 10:37:18;;;;;;;18.20;17.10;;;33.80;71.30;;;;;;5066508;28;20554;-69
2022/07/13 10:43:14;;;;;;;18.97;17.67;;;34.40;65.50;;;;;;5068999;28;21104;-69
2022/07/13 10:45:43;;;;;;;17.30;16.23;;;35.00;66.30;;;;;;5070200;28;20478;-70
2022/07/13 10:48:41;;;;;;;17.87;16.57;;;35.00;63.40;;;;;;5070715;28;20485;-69
2022/07/13 10:51:21;;;;;;;17.57;16.67;;;35.50;60.80;;;;;;5071725;28;20999;-69
2022/07/13 10:54:12;;;;;;;17.67;16.77;;;34.50;60.70;;;;;;5071224;28;20465;-70
2022/07/13 10:57:16;;;;;;;17.30;16.40;;;33.90;62.20;;;;;;5051607;28;20493;-69
2022/07/13 10:59:48;;;;;;;17.80;16.57;;;33.30;62.30;;;;;;5071870;28;21052;-69
2022/07/13 11:02:44;;;;;;;17.63;16.73;;;32.90;63.60;;;;;;5070446;28;20474;-71
2022/07/13 11:05:11;;;;;;;17.60;16.60;;;33.00;64.90;;;;;;5071060;28;20835;-69
2022/07/13 11:07:44;;;;;;;18.70;17.20;;;33.30;65.30;;;;;;5070474;28;20939;-69
2022/07/13 11:10:20;;;;;;;17.20;16.33;;;33.70;63.90;;;;;;5071194;28;20480;-68
2022/07/13 11:13:03;;;;;;;17.57;16.33;;;33.70;62.20;;;;;;5070644;28;20856;-68
2022/07/13 11:15:45;;;;;;;17.60;16.50;;;34.30;60.80;;;;;;5070338;28;20449;-70
2022/07/13 11:18:27;;;;;;;17.30;16.30;;;34.30;59.30;;;;;;5070936;28;20542;-68
2022/07/13 11:20:59;;;;;;;18.27;16.83;;;33.70;60.00;;;;;;5070917;28;20471;-68
2022/07/13 11:26:19;;;;;;;17.67;16.00;;;33.40;62.00;;;;;;5070582;28;20506;-67
2022/07/13 11:28:53;;;;;;;17.73;16.67;;;33.20;60.30;;;;;;5069618;28;20546;-67
2022/07/13 11:31:23;;;;;;;16.80;15.80;;;33.40;60.50;;;;;;5070953;28;20469;-68
2022/07/13 11:33:50;;;;;;;17.30;16.17;;;33.50;60.50;;;;;;5070602;28;20516;-67
2022/07/13 11:36:22;;;;;;;17.20;16.30;;;33.80;62.20;;;;;;5069911;28;21020;-67
2022/07/13 11:38:49;;;;;;;17.33;16.00;;;34.30;60.00;;;;;;5069959;28;20458;-67
2022/07/13 11:41:20;;;;;;;17.10;16.20;;;35.00;59.80;;;;;;5069665;28;20478;-69
2022/07/13 11:43:48;;;;;;;17.20;16.30;;;35.70;57.90;;;;;;5069493;28;21175;-68
2022/07/13 11:46:15;;;;;;;17.53;16.47;;;35.90;57.20;;;;;;5069226;28;20473;-67
2022/07/13 11:48:43;;;;;;;17.00;16.00;;;35.30;56.50;;;;;;5069348;28;20452;-67
2022/07/13 11:51:14;;;;;;;16.80;16.00;;;34.60;57.80;;;;;;5070353;28;20470;-67
2022/07/13 11:53:41;;;;;;;17.47;16.37;;;33.80;58.50;;;;;;5070232;28;20465;-68
2022/07/13 11:56:09;;;;;;;16.53;15.77;;;33.70;60.50;;;;;;5069859;28;21508;-68
2022/07/13 11:58:39;;;;;;;17.03;16.03;;;33.90;58.40;;;;;;5069671;28;20540;-67
2022/07/13 12:01:11;;;;;;;18.60;17.27;;;34.30;57.70;;;;;;5070088;28;20653;-67
2022/07/13 12:03:38;;;;;;;17.00;16.10;;;34.70;58.00;;;;;;5070339;28;20453;-68
2022/07/13 12:06:08;;;;;;;16.50;15.73;;;34.80;57.10;;;;;;5070191;28;20489;-69
2022/07/13 12:08:37;;;;;;;16.57;15.77;;;34.90;57.70;;;;;;5069903;28;20469;-68
2022/07/13 12:11:06;;;;;;;17.43;16.23;;;35.20;57.60;;;;;;5069731;28;20514;-67
2022/07/13 12:13:34;;;;;;;16.90;15.90;;;34.80;56.50;;;;;;5070152;28;20472;-67
2022/07/13 12:16:02;;;;;;;16.63;15.47;;;34.20;57.80;;;;;;5068950;28;20460;-66
2022/07/13 12:18:29;;;;;;;16.90;15.70;;;34.40;57.80;;;;;;5070159;28;20957;-68
2022/07/13 12:20:58;;;;;;;17.10;16.00;;;34.10;58.30;;;;;;5068294;28;20833;-66
2022/07/13 12:23:31;;;;;;;17.10;16.07;;;34.60;57.50;;;;;;5068592;28;20553;-68
2022/07/13 12:26:06;;;;;;;16.07;15.17;;;35.30;57.00;;;;;;5069654;28;20553;-67
2022/07/13 12:28:33;;;;;;;17.40;16.20;;;35.20;55.70;;;;;;5066062;28;20513;-66
2022/07/13 12:31:01;;;;;;;16.90;15.90;;;34.60;56.70;;;;;;5067541;28;20473;-67
2022/07/13 12:33:42;;;;;;;16.83;16.03;;;34.80;56.90;;;;;;5067268;28;20490;-66
2022/07/13 12:36:10;;;;;;;16.93;15.93;;;35.00;57.50;;;;;;5068705;28;20453;-67
2022/07/13 12:38:54;;;;;;;16.80;15.83;;;35.40;56.70;;;;;;5068742;28;20462;-68
2022/07/13 12:41:27;;;;;;;16.80;15.80;;;36.30;56.00;;;;;;5094725;28;20803;-68
2022/07/13 12:43:56;;;;;;;17.37;16.30;;;36.40;54.90;;;;;;5096557;28;20560;-66
2022/07/13 12:46:24;;;;;;;17.50;15.93;;;35.50;55.80;;;;;;5095072;28;20547;-67
2022/07/13 12:49:00;;;;;;;16.57;15.77;;;35.30;55.70;;;;;;5094171;28;20485;-66
2022/07/13 12:51:53;;;;;;;17.33;16.40;;;34.80;56.00;;;;;;5069526;28;20519;-67
2022/07/13 12:54:49;;;;;;;16.70;15.90;;;34.80;56.70;;;;;;5068494;28;21127;-68
2022/07/13 12:57:17;;;;;;;17.90;16.40;;;35.00;58.10;;;;;;5032785;28;20501;-67
2022/07/13 13:00:05;;;;;;;16.90;16.10;;;34.90;56.40;;;;;;5068942;28;20458;-67